sensor_id;sensor_type;location;lat;lon;timestamp;pressure;altitude;pressure_sealevel;temperature;humidity
60319;BME280;46163;52.306;5.634;2024-01-10T00:01:17;103179.22;;;-6.48;77.64
60319;BME280;46163;52.306;5.634;2024-01-10T00:03:43;103171.53;;;-6.51;78.25
60319;BME280;46163;52.306;5.634;2024-01-10T00:06:10;103169.72;;;-6.47;77.77
60319;BME280;46163;52.306;5.634;2024-01-10T00:08:35;103176.63;;;-6.48;78.13
60319;BME280;46163;52.306;5.634;2024-01-10T00:11:00;103180.13;;;-6.49;77.93
60319;BME280;46163;52.306;5.634;2024-01-10T00:13:26;103175.78;;;-6.48;78.11
60319;BME280;46163;52.306;5.634;2024-01-10T00:15:53;103162.88;;;-6.50;78.32
60319;BME280;46163;52.306;5.634;2024-01-10T00:18:19;103156.13;;;-6.57;78.24
60319;BME280;46163;52.306;5.634;2024-01-10T00:20:44;103174.09;;;-6.49;78.55
60319;BME280;46163;52.306;5.634;2024-01-10T00:23:09;103155.91;;;-6.48;78.89
60319;BME280;46163;52.306;5.634;2024-01-10T00:25:35;103160.97;;;-6.42;78.79
60319;BME280;46163;52.306;5.634;2024-01-10T00:28:00;103144.88;;;-6.56;78.94
60319;BME280;46163;52.306;5.634;2024-01-10T00:30:26;103150.75;;;-6.49;79.27
60319;BME280;46163;52.306;5.634;2024-01-10T00:32:51;103130.25;;;-6.59;79.01
60319;BME280;46163;52.306;5.634;2024-01-10T00:35:17;103133.47;;;-6.49;79.36
60319;BME280;46163;52.306;5.634;2024-01-10T00:37:42;103135.25;;;-6.51;79.64
60319;BME280;46163;52.306;5.634;2024-01-10T00:40:08;103134.59;;;-6.61;78.88
60319;BME280;46163;52.306;5.634;2024-01-10T00:42:33;103141.53;;;-6.63;79.00
60319;BME280;46163;52.306;5.634;2024-01-10T00:44:59;103144.94;;;-6.59;78.61
60319;BME280;46163;52.306;5.634;2024-01-10T00:47:24;103131.13;;;-6.60;79.54
60319;BME280;46163;52.306;5.634;2024-01-10T00:49:50;103138.88;;;-6.58;79.53
60319;BME280;46163;52.306;5.634;2024-01-10T00:52:15;103144.91;;;-6.58;78.84
60319;BME280;46163;52.306;5.634;2024-01-10T00:54:40;103129.56;;;-6.67;79.45
60319;BME280;46163;52.306;5.634;2024-01-10T00:57:06;103140.66;;;-6.60;78.77
60319;BME280;46163;52.306;5.634;2024-01-10T00:59:31;103135.47;;;-6.60;79.00
60319;BME280;46163;52.306;5.634;2024-01-10T01:01:57;103129.25;;;-6.53;79.82
60319;BME280;46163;52.306;5.634;2024-01-10T01:04:22;103118.97;;;-6.56;79.79
60319;BME280;46163;52.306;5.634;2024-01-10T01:06:47;103121.53;;;-6.56;79.80
60319;BME280;46163;52.306;5.634;2024-01-10T01:09:13;103121.63;;;-6.59;80.67
60319;BME280;46163;52.306;5.634;2024-01-10T01:11:40;103128.44;;;-6.55;79.74
60319;BME280;46163;52.306;5.634;2024-01-10T01:14:06;103132.72;;;-6.54;79.88
60319;BME280;46163;52.306;5.634;2024-01-10T01:16:32;103130.88;;;-6.49;80.24
60319;BME280;46163;52.306;5.634;2024-01-10T01:18:57;103129.22;;;-6.51;80.26
60319;BME280;46163;52.306;5.634;2024-01-10T01:21:22;103135.25;;;-6.51;80.93
60319;BME280;46163;52.306;5.634;2024-01-10T01:23:48;103112.00;;;-6.54;81.15
60319;BME280;46163;52.306;5.634;2024-01-10T01:26:13;103123.22;;;-6.53;80.73
60319;BME280;46163;52.306;5.634;2024-01-10T01:28:39;103123.06;;;-6.47;80.71
60319;BME280;46163;52.306;5.634;2024-01-10T01:31:05;103118.81;;;-6.50;80.52
60319;BME280;46163;52.306;5.634;2024-01-10T01:33:30;103135.91;;;-6.43;80.74
60319;BME280;46163;52.306;5.634;2024-01-10T01:35:56;103117.19;;;-6.54;80.96
60319;BME280;46163;52.306;5.634;2024-01-10T01:38:21;103130.00;;;-6.48;80.02
60319;BME280;46163;52.306;5.634;2024-01-10T01:40:47;103124.75;;;-6.45;80.45
60319;BME280;46163;52.306;5.634;2024-01-10T01:43:25;103118.91;;;-6.55;81.20
60319;BME280;46163;52.306;5.634;2024-01-10T01:45:53;103123.06;;;-6.47;80.82
60319;BME280;46163;52.306;5.634;2024-01-10T01:48:20;103118.75;;;-6.47;80.97
60319;BME280;46163;52.306;5.634;2024-01-10T01:50:47;103108.59;;;-6.56;80.69
60319;BME280;46163;52.306;5.634;2024-01-10T01:53:14;103110.28;;;-6.55;80.59
60319;BME280;46163;52.306;5.634;2024-01-10T01:55:42;103116.50;;;-6.62;80.69
60319;BME280;46163;52.306;5.634;2024-01-10T01:58:08;103111.28;;;-6.61;81.22
60319;BME280;46163;52.306;5.634;2024-01-10T02:00:35;103118.19;;;-6.61;80.92
60319;BME280;46163;52.306;5.634;2024-01-10T02:03:01;103109.91;;;-6.75;81.08
60319;BME280;46163;52.306;5.634;2024-01-10T02:05:28;103116.50;;;-6.62;81.11
60319;BME280;46163;52.306;5.634;2024-01-10T02:07:53;103104.97;;;-6.86;81.57
60319;BME280;46163;52.306;5.634;2024-01-10T02:10:20;103109.56;;;-7.00;81.72
60319;BME280;46163;52.306;5.634;2024-01-10T02:12:45;103099.28;;;-7.05;80.89
60319;BME280;46163;52.306;5.634;2024-01-10T02:15:12;103096.47;;;-6.93;82.53
60319;BME280;46163;52.306;5.634;2024-01-10T02:17:38;103089.78;;;-7.04;81.21
60319;BME280;46163;52.306;5.634;2024-01-10T02:20:14;103094.94;;;-7.01;82.94
60319;BME280;46163;52.306;5.634;2024-01-10T02:22:42;103089.63;;;-6.97;82.09
60319;BME280;46163;52.306;5.634;2024-01-10T02:25:11;103093.81;;;-6.90;82.78
60319;BME280;46163;52.306;5.634;2024-01-10T02:27:37;103087.09;;;-6.98;82.42
60319;BME280;46163;52.306;5.634;2024-01-10T02:30:04;103087.91;;;-6.96;82.70
60319;BME280;46163;52.306;5.634;2024-01-10T02:32:30;103076.94;;;-7.07;81.84
60319;BME280;46163;52.306;5.634;2024-01-10T02:34:56;103071.88;;;-7.57;82.05
60319;BME280;46163;52.306;5.634;2024-01-10T02:37:22;103083.53;;;-7.34;83.60
60319;BME280;46163;52.306;5.634;2024-01-10T02:39:47;103074.34;;;-7.51;83.24
60319;BME280;46163;52.306;5.634;2024-01-10T02:42:12;103071.00;;;-7.54;81.04
60319;BME280;46163;52.306;5.634;2024-01-10T02:44:38;103073.47;;;-7.50;81.63
60319;BME280;46163;52.306;5.634;2024-01-10T02:47:04;103088.47;;;-7.69;82.72
60319;BME280;46163;52.306;5.634;2024-01-10T02:49:30;103087.94;;;-8.35;77.83
60319;BME280;46163;52.306;5.634;2024-01-10T02:51:55;103075.34;;;-8.55;79.70
60319;BME280;46163;52.306;5.634;2024-01-10T02:54:20;103067.09;;;-8.24;81.84
60319;BME280;46163;52.306;5.634;2024-01-10T02:56:46;103087.53;;;-8.12;75.20
60319;BME280;46163;52.306;5.634;2024-01-10T02:59:11;103074.97;;;-8.89;80.66
60319;BME280;46163;52.306;5.634;2024-01-10T03:01:37;103079.13;;;-9.45;77.21
60319;BME280;46163;52.306;5.634;2024-01-10T03:04:02;103060.00;;;-9.30;80.60
60319;BME280;46163;52.306;5.634;2024-01-10T03:06:28;103078.00;;;-9.24;82.72
60319;BME280;46163;52.306;5.634;2024-01-10T03:08:54;103083.69;;;-8.39;88.84
60319;BME280;46163;52.306;5.634;2024-01-10T03:11:19;103093.41;;;-7.55;89.76
60319;BME280;46163;52.306;5.634;2024-01-10T03:13:46;103080.59;;;-7.18;84.71
60319;BME280;46163;52.306;5.634;2024-01-10T03:16:12;103084.72;;;-7.09;83.64
60319;BME280;46163;52.306;5.634;2024-01-10T03:18:37;103086.34;;;-7.05;83.54
60319;BME280;46163;52.306;5.634;2024-01-10T03:21:02;103063.97;;;-7.07;82.36
60319;BME280;46163;52.306;5.634;2024-01-10T03:23:28;103080.22;;;-6.99;82.49
60319;BME280;46163;52.306;5.634;2024-01-10T03:25:53;103067.53;;;-7.13;81.99
60319;BME280;46163;52.306;5.634;2024-01-10T03:28:18;103073.44;;;-7.06;82.40
60319;BME280;46163;52.306;5.634;2024-01-10T03:30:44;103063.94;;;-7.06;81.86
60319;BME280;46163;52.306;5.634;2024-01-10T03:33:10;103052.84;;;-7.11;82.01
60319;BME280;46163;52.306;5.634;2024-01-10T03:35:35;103069.94;;;-7.02;81.58
60319;BME280;46163;52.306;5.634;2024-01-10T03:38:00;103058.66;;;-7.00;81.43
60319;BME280;46163;52.306;5.634;2024-01-10T03:40:26;103040.78;;;-7.10;82.07
60319;BME280;46163;52.306;5.634;2024-01-10T03:42:51;103061.19;;;-6.98;81.50
60319;BME280;46163;52.306;5.634;2024-01-10T03:45:17;103044.91;;;-7.02;81.13
60319;BME280;46163;52.306;5.634;2024-01-10T03:47:46;103054.41;;;-7.02;81.39
60319;BME280;46163;52.306;5.634;2024-01-10T03:50:15;103058.66;;;-7.00;81.40
60319;BME280;46163;52.306;5.634;2024-01-10T03:52:40;103056.09;;;-7.01;81.95
60319;BME280;46163;52.306;5.634;2024-01-10T03:55:06;103052.72;;;-7.05;81.62
60319;BME280;46163;52.306;5.634;2024-01-10T03:57:31;103048.38;;;-7.04;82.39
60319;BME280;46163;52.306;5.634;2024-01-10T03:59:57;103049.28;;;-7.05;82.25
60319;BME280;46163;52.306;5.634;2024-01-10T04:02:22;103046.63;;;-7.04;82.19
60319;BME280;46163;52.306;5.634;2024-01-10T04:04:47;103046.78;;;-7.10;82.11
60319;BME280;46163;52.306;5.634;2024-01-10T04:07:13;103054.47;;;-7.07;82.54
60319;BME280;46163;52.306;5.634;2024-01-10T04:09:38;103054.47;;;-7.07;82.97
60319;BME280;46163;52.306;5.634;2024-01-10T04:12:04;103054.59;;;-7.12;83.05
60319;BME280;46163;52.306;5.634;2024-01-10T04:14:29;103055.44;;;-7.11;82.78
60319;BME280;46163;52.306;5.634;2024-01-10T04:16:55;103047.88;;;-7.20;82.99
60319;BME280;46163;52.306;5.634;2024-01-10T04:19:20;103057.22;;;-7.15;82.50
60319;BME280;46163;52.306;5.634;2024-01-10T04:21:46;103055.50;;;-7.14;82.99
60319;BME280;46163;52.306;5.634;2024-01-10T04:24:12;103039.31;;;-7.24;83.09
60319;BME280;46163;52.306;5.634;2024-01-10T04:26:37;103057.19;;;-7.13;82.99
60319;BME280;46163;52.306;5.634;2024-01-10T04:29:02;103050.41;;;-7.17;82.70
60319;BME280;46163;52.306;5.634;2024-01-10T04:31:28;103057.22;;;-7.15;82.69
60319;BME280;46163;52.306;5.634;2024-01-10T04:33:53;103049.63;;;-7.21;81.73
60319;BME280;46163;52.306;5.634;2024-01-10T04:36:18;103047.94;;;-7.23;82.81
60319;BME280;46163;52.306;5.634;2024-01-10T04:38:43;103054.03;;;-7.26;82.74
60319;BME280;46163;52.306;5.634;2024-01-10T04:41:09;103023.50;;;-7.52;82.33
60319;BME280;46163;52.306;5.634;2024-01-10T04:43:34;103034.38;;;-7.34;82.50
60319;BME280;46163;52.306;5.634;2024-01-10T04:46:00;103035.25;;;-7.35;82.80
60319;BME280;46163;52.306;5.634;2024-01-10T04:48:25;103041.94;;;-7.25;82.43
60319;BME280;46163;52.306;5.634;2024-01-10T04:50:51;103040.25;;;-7.26;82.58
60319;BME280;46163;52.306;5.634;2024-01-10T04:53:16;103035.03;;;-7.25;83.16
60319;BME280;46163;52.306;5.634;2024-01-10T04:55:41;103033.41;;;-7.29;81.81
60319;BME280;46163;52.306;5.634;2024-01-10T04:58:07;103025.84;;;-7.40;82.88
60319;BME280;46163;52.306;5.634;2024-01-10T05:00:32;103038.66;;;-7.33;82.14
60319;BME280;46163;52.306;5.634;2024-01-10T05:02:57;103039.38;;;-7.27;81.58
60319;BME280;46163;52.306;5.634;2024-01-10T05:05:23;103034.22;;;-7.27;81.91
60319;BME280;46163;52.306;5.634;2024-01-10T05:07:49;103035.06;;;-7.26;81.90
60319;BME280;46163;52.306;5.634;2024-01-10T05:10:16;103029.03;;;-7.27;81.98
60319;BME280;46163;52.306;5.634;2024-01-10T05:12:41;103018.81;;;-7.33;81.77
60319;BME280;46163;52.306;5.634;2024-01-10T05:15:07;103029.97;;;-7.29;81.58
60319;BME280;46163;52.306;5.634;2024-01-10T05:17:33;103023.28;;;-7.41;82.36
60319;BME280;46163;52.306;5.634;2024-01-10T05:19:58;103027.16;;;-7.62;79.27
60319;BME280;46163;52.306;5.634;2024-01-10T05:22:23;103016.84;;;-8.10;76.23
60319;BME280;46163;52.306;5.634;2024-01-10T05:24:49;103011.72;;;-8.61;80.57
60319;BME280;46163;52.306;5.634;2024-01-10T05:27:14;103023.13;;;-9.35;75.63
60319;BME280;46163;52.306;5.634;2024-01-10T05:29:40;103018.53;;;-8.55;86.02
60319;BME280;46163;52.306;5.634;2024-01-10T05:32:05;103024.94;;;-7.80;89.02
60319;BME280;46163;52.306;5.634;2024-01-10T05:34:31;103024.13;;;-7.41;85.42
60319;BME280;46163;52.306;5.634;2024-01-10T05:36:56;103018.88;;;-7.36;82.51
60319;BME280;46163;52.306;5.634;2024-01-10T05:39:22;103014.69;;;-7.42;82.17
60319;BME280;46163;52.306;5.634;2024-01-10T05:41:47;103012.91;;;-7.40;81.51
60319;BME280;46163;52.306;5.634;2024-01-10T05:44:12;103019.00;;;-7.42;81.16
60319;BME280;46163;52.306;5.634;2024-01-10T05:46:38;103020.69;;;-7.41;81.43
60319;BME280;46163;52.306;5.634;2024-01-10T05:49:03;103005.28;;;-7.47;81.27
60319;BME280;46163;52.306;5.634;2024-01-10T05:51:31;102995.03;;;-7.50;81.64
60319;BME280;46163;52.306;5.634;2024-01-10T05:53:56;103011.31;;;-7.45;81.86
60319;BME280;46163;52.306;5.634;2024-01-10T05:56:21;103011.41;;;-7.50;80.92
60319;BME280;46163;52.306;5.634;2024-01-10T05:58:48;103008.81;;;-7.50;81.29
60319;BME280;46163;52.306;5.634;2024-01-10T06:01:17;103007.09;;;-7.51;80.49
60319;BME280;46163;52.306;5.634;2024-01-10T06:03:42;103005.56;;;-7.59;81.57
60319;BME280;46163;52.306;5.634;2024-01-10T06:06:07;103008.00;;;-7.52;80.78
60319;BME280;46163;52.306;5.634;2024-01-10T06:08:33;103004.59;;;-7.54;81.10
60319;BME280;46163;52.306;5.634;2024-01-10T06:10:58;102994.38;;;-7.60;81.28
60319;BME280;46163;52.306;5.634;2024-01-10T06:13:24;102996.06;;;-7.59;82.05
60319;BME280;46163;52.306;5.634;2024-01-10T06:15:49;103000.44;;;-7.61;81.78
60319;BME280;46163;52.306;5.634;2024-01-10T06:18:15;102995.38;;;-7.67;80.78
60319;BME280;46163;52.306;5.634;2024-01-10T06:20:41;102982.59;;;-7.75;81.22
60319;BME280;46163;52.306;5.634;2024-01-10T06:23:06;102994.75;;;-7.78;80.87
60319;BME280;46163;52.306;5.634;2024-01-10T06:25:31;102997.50;;;-7.87;81.06
60319;BME280;46163;52.306;5.634;2024-01-10T06:27:57;102983.91;;;-7.97;81.04
60319;BME280;46163;52.306;5.634;2024-01-10T06:30:22;102994.44;;;-8.08;81.92
60319;BME280;46163;52.306;5.634;2024-01-10T06:32:48;102995.97;;;-7.98;82.60
60319;BME280;46163;52.306;5.634;2024-01-10T06:35:13;102985.13;;;-8.18;80.90
60319;BME280;46163;52.306;5.634;2024-01-10T06:37:40;102987.16;;;-8.86;78.60
60319;BME280;46163;52.306;5.634;2024-01-10T06:40:06;102986.03;;;-8.67;83.93
60319;BME280;46163;52.306;5.634;2024-01-10T06:42:32;102996.88;;;-9.03;85.27
60319;BME280;46163;52.306;5.634;2024-01-10T06:44:58;103004.88;;;-9.91;74.13
60319;BME280;46163;52.306;5.634;2024-01-10T06:47:23;102993.34;;;-10.36;77.62
60319;BME280;46163;52.306;5.634;2024-01-10T06:49:49;103004.41;;;-11.49;73.78
60319;BME280;46163;52.306;5.634;2024-01-10T06:52:14;103002.41;;;-10.94;85.85
60319;BME280;46163;52.306;5.634;2024-01-10T06:54:41;103005.63;;;-9.80;94.11
60319;BME280;46163;52.306;5.634;2024-01-10T06:57:07;102987.16;;;-8.86;88.82
60319;BME280;46163;52.306;5.634;2024-01-10T06:59:33;102985.84;;;-8.56;87.30
60319;BME280;46163;52.306;5.634;2024-01-10T07:01:58;102990.72;;;-8.39;84.83
60319;BME280;46163;52.306;5.634;2024-01-10T07:04:25;102976.94;;;-8.38;83.08
60319;BME280;46163;52.306;5.634;2024-01-10T07:06:53;102988.06;;;-8.35;83.67
60319;BME280;46163;52.306;5.634;2024-01-10T07:09:18;102993.22;;;-8.35;83.39
60319;BME280;46163;52.306;5.634;2024-01-10T07:11:47;102983.88;;;-8.40;84.12
60319;BME280;46163;52.306;5.634;2024-01-10T07:14:13;102984.75;;;-8.41;82.90
60319;BME280;46163;52.306;5.634;2024-01-10T07:16:39;102985.66;;;-8.45;82.46
60319;BME280;46163;52.306;5.634;2024-01-10T07:19:07;102994.22;;;-8.42;83.00
60319;BME280;46163;52.306;5.634;2024-01-10T07:21:32;102997.66;;;-8.41;84.69
60319;BME280;46163;52.306;5.634;2024-01-10T07:23:58;102995.03;;;-8.40;84.08
60319;BME280;46163;52.306;5.634;2024-01-10T07:26:24;103006.22;;;-8.39;82.98
60319;BME280;46163;52.306;5.634;2024-01-10T07:28:52;103006.28;;;-8.42;82.60
60319;BME280;46163;52.306;5.634;2024-01-10T07:31:18;103013.31;;;-8.50;81.50
60319;BME280;46163;52.306;5.634;2024-01-10T07:33:43;103009.16;;;-8.61;83.39
60319;BME280;46163;52.306;5.634;2024-01-10T07:36:09;102989.50;;;-8.68;83.31
60319;BME280;46163;52.306;5.634;2024-01-10T07:38:34;103001.41;;;-8.59;83.06
60319;BME280;46163;52.306;5.634;2024-01-10T07:40:59;103004.81;;;-8.59;84.29
60319;BME280;46163;52.306;5.634;2024-01-10T07:43:25;103009.13;;;-8.58;84.80
60319;BME280;46163;52.306;5.634;2024-01-10T07:45:52;103006.56;;;-8.61;82.79
60319;BME280;46163;52.306;5.634;2024-01-10T07:48:18;103014.31;;;-8.59;83.21
60319;BME280;46163;52.306;5.634;2024-01-10T07:50:45;103003.22;;;-8.66;83.71
60319;BME280;46163;52.306;5.634;2024-01-10T07:53:11;103014.22;;;-8.55;83.77
60319;BME280;46163;52.306;5.634;2024-01-10T07:55:38;103018.56;;;-8.57;85.69
60319;BME280;46163;52.306;5.634;2024-01-10T07:58:03;103027.25;;;-9.22;74.49
60319;BME280;46163;52.306;5.634;2024-01-10T08:00:30;103023.97;;;-10.07;84.95
60319;BME280;46163;52.306;5.634;2024-01-10T08:02:56;103032.91;;;-12.24;74.47
60319;BME280;46163;52.306;5.634;2024-01-10T08:05:23;103037.97;;;-11.87;86.00
60319;BME280;46163;52.306;5.634;2024-01-10T08:07:49;103032.28;;;-10.76;96.47
60319;BME280;46163;52.306;5.634;2024-01-10T08:10:14;103026.50;;;-9.30;99.22
60319;BME280;46163;52.306;5.634;2024-01-10T08:12:40;103021.69;;;-8.92;90.16
60319;BME280;46163;52.306;5.634;2024-01-10T08:15:09;103029.19;;;-8.75;87.82
60319;BME280;46163;52.306;5.634;2024-01-10T08:17:35;103033.34;;;-8.66;87.70
60319;BME280;46163;52.306;5.634;2024-01-10T08:20:04;103018.72;;;-8.69;85.39
60319;BME280;46163;52.306;5.634;2024-01-10T08:22:31;103030.66;;;-8.59;85.35
60319;BME280;46163;52.306;5.634;2024-01-10T08:24:56;103021.19;;;-8.60;84.84
60319;BME280;46163;52.306;5.634;2024-01-10T08:27:22;103026.41;;;-8.64;84.60
60319;BME280;46163;52.306;5.634;2024-01-10T08:29:48;103024.63;;;-8.61;85.00
60319;BME280;46163;52.306;5.634;2024-01-10T08:32:13;103020.25;;;-8.56;84.25
60319;BME280;46163;52.306;5.634;2024-01-10T08:34:40;103021.81;;;-8.45;84.78
60319;BME280;46163;52.306;5.634;2024-01-10T08:37:05;103025.03;;;-8.34;83.63
60319;BME280;46163;52.306;5.634;2024-01-10T08:39:31;103024.94;;;-8.28;81.74
60319;BME280;46163;52.306;5.634;2024-01-10T08:41:57;103021.06;;;-8.04;79.77
60319;BME280;46163;52.306;5.634;2024-01-10T08:44:22;103005.47;;;-8.00;80.40
60319;BME280;46163;52.306;5.634;2024-01-10T08:46:48;103010.78;;;-7.61;76.45
60319;BME280;46163;52.306;5.634;2024-01-10T08:49:16;103010.63;;;-7.53;77.75
60319;BME280;46163;52.306;5.634;2024-01-10T08:51:41;103012.69;;;-7.29;76.04
60319;BME280;46163;52.306;5.634;2024-01-10T08:54:09;103026.88;;;-7.06;74.56
60319;BME280;46163;52.306;5.634;2024-01-10T08:56:34;103006.38;;;-6.78;72.72
60319;BME280;46163;52.306;5.634;2024-01-10T08:58:59;103010.22;;;-6.58;71.12
60319;BME280;46163;52.306;5.634;2024-01-10T09:01:26;103011.50;;;-6.40;71.58
60319;BME280;46163;52.306;5.634;2024-01-10T09:03:51;103011.22;;;-6.29;71.32
60319;BME280;46163;52.306;5.634;2024-01-10T09:06:16;103000.63;;;-6.20;70.75
60319;BME280;46163;52.306;5.634;2024-01-10T09:08:42;103008.94;;;-6.09;70.38
60319;BME280;46163;52.306;5.634;2024-01-10T09:11:08;102991.44;;;-5.99;68.58
60319;BME280;46163;52.306;5.634;2024-01-10T09:13:34;102997.56;;;-5.72;68.00
60319;BME280;46163;52.306;5.634;2024-01-10T09:16:00;102999.75;;;-5.58;67.47
60319;BME280;46163;52.306;5.634;2024-01-10T09:18:26;102999.50;;;-5.49;67.14
60319;BME280;46163;52.306;5.634;2024-01-10T09:20:51;102984.78;;;-5.49;66.11
60319;BME280;46163;52.306;5.634;2024-01-10T09:23:16;102999.56;;;-5.21;65.33
60319;BME280;46163;52.306;5.634;2024-01-10T09:25:42;102987.75;;;-5.03;64.61
60319;BME280;46163;52.306;5.634;2024-01-10T09:28:07;102988.47;;;-4.72;62.93
60319;BME280;46163;52.306;5.634;2024-01-10T09:30:32;102973.47;;;-4.37;61.42
60319;BME280;46163;52.306;5.634;2024-01-10T09:32:58;102977.63;;;-4.07;59.83
60319;BME280;46163;52.306;5.634;2024-01-10T09:35:24;102992.06;;;-3.98;60.52
60319;BME280;46163;52.306;5.634;2024-01-10T09:37:50;102986.53;;;-4.14;58.75
60319;BME280;46163;52.306;5.634;2024-01-10T09:40:16;102978.00;;;-3.69;58.64
60319;BME280;46163;52.306;5.634;2024-01-10T09:42:44;102988.06;;;-2.49;54.99
60319;BME280;46163;52.306;5.634;2024-01-10T09:45:10;102987.63;;;-1.21;51.85
60319;BME280;46163;52.306;5.634;2024-01-10T09:47:39;102958.03;;;-1.59;50.44
60319;BME280;46163;52.306;5.634;2024-01-10T09:50:08;102973.00;;;-1.44;51.80
60319;BME280;46163;52.306;5.634;2024-01-10T09:52:42;102983.72;;;-2.08;53.04
60319;BME280;46163;52.306;5.634;2024-01-10T09:55:12;102966.84;;;-0.51;49.12
60319;BME280;46163;52.306;5.634;2024-01-10T09:57:40;102957.41;;;1.38;44.91
60319;BME280;46163;52.306;5.634;2024-01-10T10:00:06;102973.50;;;0.22;45.87
60319;BME280;46163;52.306;5.634;2024-01-10T10:02:37;102963.06;;;0.05;46.03
60319;BME280;46163;52.306;5.634;2024-01-10T10:05:07;102973.47;;;0.55;45.32
60319;BME280;46163;52.306;5.634;2024-01-10T10:07:52;102956.66;;;0.91;45.97
60319;BME280;46163;52.306;5.634;2024-01-10T10:10:20;102965.03;;;2.16;42.62
60319;BME280;46163;52.306;5.634;2024-01-10T10:12:47;102972.00;;;0.18;45.44
60319;BME280;46163;52.306;5.634;2024-01-10T10:15:17;102984.66;;;-0.96;47.30
60319;BME280;46163;52.306;5.634;2024-01-10T10:17:47;102979.22;;;-1.46;49.44
60319;BME280;46163;52.306;5.634;2024-01-10T10:20:22;102981.41;;;-1.95;49.99
60319;BME280;46163;52.306;5.634;2024-01-10T10:25:22;102982.78;;;-2.47;51.92
60319;BME280;46163;52.306;5.634;2024-01-10T10:27:50;102984.16;;;-2.59;52.30
60319;BME280;46163;52.306;5.634;2024-01-10T10:30:17;102981.38;;;-2.76;52.87
60319;BME280;46163;52.306;5.634;2024-01-10T10:32:42;102976.25;;;-2.79;52.06
60319;BME280;46163;52.306;5.634;2024-01-10T10:35:08;102967.81;;;-2.85;53.45
60319;BME280;46163;52.306;5.634;2024-01-10T10:37:34;102975.63;;;-2.85;52.66
60319;BME280;46163;52.306;5.634;2024-01-10T10:39:59;102969.63;;;-2.87;53.30
60319;BME280;46163;52.306;5.634;2024-01-10T10:42:26;102955.16;;;-2.94;53.71
60319;BME280;46163;52.306;5.634;2024-01-10T10:44:58;102972.34;;;-2.90;53.62
60319;BME280;46163;52.306;5.634;2024-01-10T10:47:30;102951.81;;;-2.97;53.30
60319;BME280;46163;52.306;5.634;2024-01-10T10:50:02;102964.31;;;-2.63;52.38
60319;BME280;46163;52.306;5.634;2024-01-10T10:52:28;102961.31;;;-2.74;53.23
60319;BME280;46163;52.306;5.634;2024-01-10T10:54:55;102954.84;;;-2.86;53.77
60319;BME280;46163;52.306;5.634;2024-01-10T10:57:22;102956.00;;;-2.51;52.01
60319;BME280;46163;52.306;5.634;2024-01-10T10:59:51;102950.50;;;-1.65;50.27
60319;BME280;46163;52.306;5.634;2024-01-10T11:02:21;102956.06;;;-1.54;49.60
60319;BME280;46163;52.306;5.634;2024-01-10T11:04:50;102953.97;;;-1.09;49.01
60319;BME280;46163;52.306;5.634;2024-01-10T11:07:19;102953.13;;;-0.22;47.46
60319;BME280;46163;52.306;5.634;2024-01-10T11:09:46;102958.81;;;-1.38;49.07
60319;BME280;46163;52.306;5.634;2024-01-10T11:23:43;102958.31;;;-2.65;51.50
60319;BME280;46163;52.306;5.634;2024-01-10T11:26:10;102959.78;;;-2.38;50.73
60319;BME280;46163;52.306;5.634;2024-01-10T11:28:39;102943.22;;;-2.57;51.55
60319;BME280;46163;52.306;5.634;2024-01-10T11:31:06;102951.34;;;-2.65;52.28
60319;BME280;46163;52.306;5.634;2024-01-10T11:33:37;102949.13;;;-2.53;52.15
60319;BME280;46163;52.306;5.634;2024-01-10T11:36:09;102958.91;;;-2.38;52.04
60319;BME280;46163;52.306;5.634;2024-01-10T11:38:58;102948.75;;;-2.65;50.88
60319;BME280;46163;52.306;5.634;2024-01-10T11:46:34;102935.63;;;-2.63;51.66
60319;BME280;46163;52.306;5.634;2024-01-10T11:48:59;102935.63;;;-2.83;51.91
60319;BME280;46163;52.306;5.634;2024-01-10T11:51:25;102937.56;;;-2.89;50.07
60319;BME280;46163;52.306;5.634;2024-01-10T11:53:50;102937.19;;;-2.79;53.14
60319;BME280;46163;52.306;5.634;2024-01-10T11:56:18;102949.78;;;-2.69;51.64
60319;BME280;46163;52.306;5.634;2024-01-10T12:01:24;102933.50;;;-2.33;50.78
60319;BME280;46163;52.306;5.634;2024-01-10T12:03:54;102934.78;;;-2.64;51.06
60319;BME280;46163;52.306;5.634;2024-01-10T12:06:21;102929.66;;;-2.87;51.83
60319;BME280;46163;52.306;5.634;2024-01-10T12:08:46;102924.28;;;-2.82;50.37
60319;BME280;46163;52.306;5.634;2024-01-10T12:11:12;102927.78;;;-3.04;51.20
60319;BME280;46163;52.306;5.634;2024-01-10T12:13:37;102929.47;;;-2.40;50.76
60319;BME280;46163;52.306;5.634;2024-01-10T12:16:03;102926.88;;;-2.82;52.04
60319;BME280;46163;52.306;5.634;2024-01-10T12:18:28;102930.09;;;-2.98;50.73
60319;BME280;46163;52.306;5.634;2024-01-10T12:20:54;102921.22;;;-2.72;50.04
60319;BME280;46163;52.306;5.634;2024-01-10T12:23:19;102929.00;;;-2.50;50.61
60319;BME280;46163;52.306;5.634;2024-01-10T12:25:45;102900.50;;;-3.17;50.82
60319;BME280;46163;52.306;5.634;2024-01-10T12:28:10;102925.88;;;-3.00;51.46
60319;BME280;46163;52.306;5.634;2024-01-10T12:30:41;102918.91;;;-3.00;49.85
60319;BME280;46163;52.306;5.634;2024-01-10T12:33:08;102922.56;;;-3.71;50.71
60319;BME280;46163;52.306;5.634;2024-01-10T12:35:34;102923.63;;;-3.77;54.15
60319;BME280;46163;52.306;5.634;2024-01-10T12:37:59;102926.53;;;-3.39;53.27
60319;BME280;46163;52.306;5.634;2024-01-10T12:40:24;102924.47;;;-3.53;52.29
60319;BME280;46163;52.306;5.634;2024-01-10T12:43:02;102920.13;;;-3.52;50.86
60319;BME280;46163;52.306;5.634;2024-01-10T12:45:27;102917.84;;;-3.61;50.31
60319;BME280;46163;52.306;5.634;2024-01-10T12:47:53;102925.28;;;-4.72;52.23
60319;BME280;46163;52.306;5.634;2024-01-10T12:50:19;102909.22;;;-3.85;51.03
60319;BME280;46163;52.306;5.634;2024-01-10T12:52:45;102896.00;;;-3.14;53.52
60319;BME280;46163;52.306;5.634;2024-01-10T12:55:11;102901.59;;;-3.01;55.68
60319;BME280;46163;52.306;5.634;2024-01-10T12:57:37;102884.63;;;-2.69;54.23
60319;BME280;46163;52.306;5.634;2024-01-10T13:00:03;102905.94;;;-2.00;51.38
60319;BME280;46163;52.306;5.634;2024-01-10T13:02:32;102896.50;;;-1.64;48.93
60319;BME280;46163;52.306;5.634;2024-01-10T13:05:04;102895.03;;;-1.89;51.14
60319;BME280;46163;52.306;5.634;2024-01-10T13:07:30;102896.97;;;-1.75;50.34